sensor_id;sensor_type;location;lat;lon;timestamp;pressure;altitude;pressure_sealevel;temperature;humidity
7836;BME280;3963;42.658;23.298;2022-08-21T00:00:23;60493.69;;;18.16;100.00
7836;BME280;3963;42.658;23.298;2022-08-21T00:02:54;60544.16;;;18.19;100.00
7836;BME280;3963;42.658;23.298;2022-08-21T00:05:21;60559.53;;;18.24;100.00
7836;BME280;3963;42.658;23.298;2022-08-21T00:07:48;60514.22;;;18.18;100.00
7836;BME280;3963;42.658;23.298;2022-08-21T00:10:17;60529.59;;;18.23;100.00
7836;BME280;3963;42.658;23.298;2022-08-21T00:12:45;60494.16;;;18.14;100.00
7836;BME280;3963;42.658;23.298;2022-08-21T00:15:14;60497.53;;;18.05;100.00
7836;BME280;3963;42.658;23.298;2022-08-21T00:17:41;60535.75;;;18.04;100.00
7836;BME280;3963;42.658;23.298;2022-08-21T00:20:10;60492.00;;;18.12;100.00
7836;BME280;3963;42.658;23.298;2022-08-21T00:22:37;60508.28;;;17.98;100.00
7836;BME280;3963;42.658;23.298;2022-08-21T00:25:06;60513.34;;;17.93;100.00
7836;BME280;3963;42.658;23.298;2022-08-21T00:27:35;60529.25;;;17.98;100.00
7836;BME280;3963;42.658;23.298;2022-08-21T00:30:03;60538.38;;;18.04;100.00
7836;BME280;3963;42.658;23.298;2022-08-21T00:32:30;60532.06;;;18.03;100.00
7836;BME280;3963;42.658;23.298;2022-08-21T00:34:57;60545.88;;;18.09;100.00
7836;BME280;3963;42.658;23.298;2022-08-21T00:37:24;60530.16;;;18.09;100.00
7836;BME280;3963;42.658;23.298;2022-08-21T00:39:52;60524.75;;;18.04;100.00
7836;BME280;3963;42.658;23.298;2022-08-21T00:42:19;60500.63;;;17.89;100.00
7836;BME280;3963;42.658;23.298;2022-08-21T00:44:48;60515.25;;;18.02;100.00
7836;BME280;3963;42.658;23.298;2022-08-21T00:47:16;60509.09;;;18.06;100.00
7836;BME280;3963;42.658;23.298;2022-08-21T00:49:44;60530.16;;;18.09;100.00
7836;BME280;3963;42.658;23.298;2022-08-21T00:52:15;60491.31;;;17.92;100.00
7836;BME280;3963;42.658;23.298;2022-08-21T00:54:42;60473.25;;;17.85;100.00
7836;BME280;3963;42.658;23.298;2022-08-21T00:57:14;60484.09;;;17.81;100.00
7836;BME280;3963;42.658;23.298;2022-08-21T00:59:44;60491.31;;;17.92;100.00
7836;BME280;3963;42.658;23.298;2022-08-21T01:02:13;60528.34;;;18.02;100.00
7836;BME280;3963;42.658;23.298;2022-08-21T01:04:40;60499.59;;;18.05;100.00
7836;BME280;3963;42.658;23.298;2022-08-21T01:07:08;60526.19;;;18.00;100.00
7836;BME280;3963;42.658;23.298;2022-08-21T01:09:35;60548.78;;;18.02;100.00
7836;BME280;3963;42.658;23.298;2022-08-21T01:12:03;60527.88;;;18.04;100.00
7836;BME280;3963;42.658;23.298;2022-08-21T01:14:31;60545.44;;;17.96;100.00
7836;BME280;3963;42.658;23.298;2022-08-21T01:16:59;60514.81;;;17.90;100.00
7836;BME280;3963;42.658;23.298;2022-08-21T01:19:29;60514.81;;;17.90;100.00
7836;BME280;3963;42.658;23.298;2022-08-21T01:21:57;60492.41;;;17.93;100.00
7836;BME280;3963;42.658;23.298;2022-08-21T01:24:26;60518.88;;;18.01;100.00
7836;BME280;3963;42.658;23.298;2022-08-21T01:26:52;60513.53;;;17.98;100.00
7836;BME280;3963;42.658;23.298;2022-08-21T01:29:29;60511.28;;;17.94;100.00
7836;BME280;3963;42.658;23.298;2022-08-21T01:31:57;60509.22;;;17.94;100.00
7836;BME280;3963;42.658;23.298;2022-08-21T01:34:25;60468.72;;;17.91;100.00
7836;BME280;3963;42.658;23.298;2022-08-21T01:36:51;60516.53;;;17.94;100.00
7836;BME280;3963;42.658;23.298;2022-08-21T01:39:20;60469.28;;;17.91;100.00
7836;BME280;3963;42.658;23.298;2022-08-21T01:41:46;60503.25;;;17.89;100.00
7836;BME280;3963;42.658;23.298;2022-08-21T01:44:13;60467.19;;;17.77;100.00
7836;BME280;3963;42.658;23.298;2022-08-21T01:46:40;60455.72;;;17.79;100.00
7836;BME280;3963;42.658;23.298;2022-08-21T01:49:07;60440.22;;;17.69;100.00
7836;BME280;3963;42.658;23.298;2022-08-21T01:51:34;60462.09;;;17.65;100.00
7836;BME280;3963;42.658;23.298;2022-08-21T01:54:00;60439.34;;;17.58;100.00
7836;BME280;3963;42.658;23.298;2022-08-21T01:56:36;60449.91;;;17.46;100.00
7836;BME280;3963;42.658;23.298;2022-08-21T01:59:03;60474.25;;;17.69;100.00
7836;BME280;3963;42.658;23.298;2022-08-21T02:01:30;60487.38;;;17.69;100.00
7836;BME280;3963;42.658;23.298;2022-08-21T02:03:57;60446.16;;;17.75;100.00
7836;BME280;3963;42.658;23.298;2022-08-21T02:06:25;60458.28;;;17.76;100.00
7836;BME280;3963;42.658;23.298;2022-08-21T02:08:52;60491.63;;;17.71;100.00
7836;BME280;3963;42.658;23.298;2022-08-21T02:11:20;60482.84;;;17.75;100.00
7836;BME280;3963;42.658;23.298;2022-08-21T02:13:48;60496.84;;;17.71;100.00
7836;BME280;3963;42.658;23.298;2022-08-21T02:16:15;60508.78;;;17.67;100.00
7836;BME280;3963;42.658;23.298;2022-08-21T02:18:42;60440.22;;;17.69;100.00
7836;BME280;3963;42.658;23.298;2022-08-21T02:21:09;60473.91;;;17.74;100.00
7836;BME280;3963;42.658;23.298;2022-08-21T02:23:36;60456.09;;;17.74;100.00
7836;BME280;3963;42.658;23.298;2022-08-21T02:26:05;60472.44;;;17.77;100.00
7836;BME280;3963;42.658;23.298;2022-08-21T02:28:33;60466.56;;;17.74;100.00
7836;BME280;3963;42.658;23.298;2022-08-21T02:31:02;60471.28;;;17.74;100.00
7836;BME280;3963;42.658;23.298;2022-08-21T02:33:30;60462.25;;;17.70;100.00
7836;BME280;3963;42.658;23.298;2022-08-21T02:35:57;60445.28;;;17.64;100.00
7836;BME280;3963;42.658;23.298;2022-08-21T02:38:28;60444.75;;;17.49;100.00
7836;BME280;3963;42.658;23.298;2022-08-21T02:40:56;60468.41;;;17.66;100.00
7836;BME280;3963;42.658;23.298;2022-08-21T02:43:25;60457.00;;;17.70;100.00
7836;BME280;3963;42.658;23.298;2022-08-21T02:45:53;60448.06;;;17.69;100.00
7836;BME280;3963;42.658;23.298;2022-08-21T02:48:24;60411.06;;;17.59;100.00
7836;BME280;3963;42.658;23.298;2022-08-21T02:50:54;60409.91;;;17.41;100.00
7836;BME280;3963;42.658;23.298;2022-08-21T02:53:22;60420.03;;;17.31;100.00
7836;BME280;3963;42.658;23.298;2022-08-21T02:55:50;60412.63;;;17.29;100.00
7836;BME280;3963;42.658;23.298;2022-08-21T02:58:24;60410.13;;;17.17;100.00
7836;BME280;3963;42.658;23.298;2022-08-21T03:00:52;60442.06;;;17.32;100.00
7836;BME280;3963;42.658;23.298;2022-08-21T03:03:19;60412.25;;;17.33;100.00
7836;BME280;3963;42.658;23.298;2022-08-21T03:05:48;60403.41;;;17.35;100.00
7836;BME280;3963;42.658;23.298;2022-08-21T03:08:15;60435.97;;;17.38;100.00
7836;BME280;3963;42.658;23.298;2022-08-21T03:10:44;60424.44;;;17.37;100.00
7836;BME280;3963;42.658;23.298;2022-08-21T03:13:12;60460.19;;;17.41;100.00
7836;BME280;3963;42.658;23.298;2022-08-21T03:15:39;60444.56;;;17.44;100.00
7836;BME280;3963;42.658;23.298;2022-08-21T03:18:07;60450.78;;;17.42;100.00
7836;BME280;3963;42.658;23.298;2022-08-21T03:20:35;60416.75;;;17.42;100.00
7836;BME280;3963;42.658;23.298;2022-08-21T03:23:05;60415.13;;;17.41;100.00
7836;BME280;3963;42.658;23.298;2022-08-21T03:25:33;60416.66;;;17.40;100.00
7836;BME280;3963;42.658;23.298;2022-08-21T03:28:03;60439.97;;;17.47;100.00
7836;BME280;3963;42.658;23.298;2022-08-21T03:30:30;60428.41;;;17.46;100.00
7836;BME280;3963;42.658;23.298;2022-08-21T03:32:57;60481.41;;;17.49;100.00
7836;BME280;3963;42.658;23.298;2022-08-21T03:35:25;60455.38;;;17.54;100.00
7836;BME280;3963;42.658;23.298;2022-08-21T03:37:53;60446.03;;;17.55;100.00
7836;BME280;3963;42.658;23.298;2022-08-21T03:40:22;60469.13;;;17.57;100.00
7836;BME280;3963;42.658;23.298;2022-08-21T03:42:49;60449.53;;;17.51;100.00
7836;BME280;3963;42.658;23.298;2022-08-21T03:45:17;60463.00;;;17.61;100.00
7836;BME280;3963;42.658;23.298;2022-08-21T03:47:52;60443.47;;;17.57;100.00
7836;BME280;3963;42.658;23.298;2022-08-21T03:50:19;60471.09;;;17.54;100.00
7836;BME280;3963;42.658;23.298;2022-08-21T03:52:46;60470.22;;;17.58;100.00
7836;BME280;3963;42.658;23.298;2022-08-21T03:55:13;60451.16;;;17.52;100.00
7836;BME280;3963;42.658;23.298;2022-08-21T03:57:41;60444.19;;;17.48;100.00
7836;BME280;3963;42.658;23.298;2022-08-21T04:00:09;60446.72;;;17.46;100.00
7836;BME280;3963;42.658;23.298;2022-08-21T04:02:37;60424.25;;;17.47;100.00
7836;BME280;3963;42.658;23.298;2022-08-21T04:05:05;60443.09;;;17.47;100.00
7836;BME280;3963;42.658;23.298;2022-08-21T04:07:32;60456.75;;;17.48;100.00
7836;BME280;3963;42.658;23.298;2022-08-21T04:09:59;60413.31;;;17.49;100.00
7836;BME280;3963;42.658;23.298;2022-08-21T04:12:26;60447.28;;;17.46;100.00
7836;BME280;3963;42.658;23.298;2022-08-21T04:14:54;60466.31;;;17.52;100.00
7836;BME280;3963;42.658;23.298;2022-08-21T04:17:21;60452.44;;;17.44;100.00
7836;BME280;3963;42.658;23.298;2022-08-21T04:19:48;60414.59;;;17.40;100.00
7836;BME280;3963;42.658;23.298;2022-08-21T04:22:15;60419.47;;;17.45;100.00
7836;BME280;3963;42.658;23.298;2022-08-21T04:24:42;60448.72;;;17.43;100.00
7836;BME280;3963;42.658;23.298;2022-08-21T04:27:10;60437.06;;;17.39;100.00
7836;BME280;3963;42.658;23.298;2022-08-21T04:29:38;60424.16;;;17.44;100.00
7836;BME280;3963;42.658;23.298;2022-08-21T04:32:06;60413.16;;;17.44;100.00
7836;BME280;3963;42.658;23.298;2022-08-21T04:34:33;60419.00;;;17.47;100.00
7836;BME280;3963;42.658;23.298;2022-08-21T04:36:59;60419.28;;;17.40;100.00
7836;BME280;3963;42.658;23.298;2022-08-21T04:39:26;60392.56;;;17.39;100.00
7836;BME280;3963;42.658;23.298;2022-08-21T04:41:53;60457.22;;;17.46;100.00
7836;BME280;3963;42.658;23.298;2022-08-21T04:44:20;60416.41;;;17.47;100.00
7836;BME280;3963;42.658;23.298;2022-08-21T04:46:46;60438.88;;;17.46;100.00
7836;BME280;3963;42.658;23.298;2022-08-21T04:49:15;60481.41;;;17.49;100.00
7836;BME280;3963;42.658;23.298;2022-08-21T04:51:43;60435.63;;;17.43;100.00
7836;BME280;3963;42.658;23.298;2022-08-21T04:54:12;60475.16;;;17.50;100.00
7836;BME280;3963;42.658;23.298;2022-08-21T04:56:43;60491.63;;;17.56;100.00
7836;BME280;3963;42.658;23.298;2022-08-21T04:59:14;60438.97;;;17.63;100.00
7836;BME280;3963;42.658;23.298;2022-08-21T05:01:43;60481.50;;;17.66;100.00
7836;BME280;3963;42.658;23.298;2022-08-21T05:04:15;60498.75;;;17.65;100.00
7836;BME280;3963;42.658;23.298;2022-08-21T05:06:45;60500.47;;;17.69;100.00
7836;BME280;3963;42.658;23.298;2022-08-21T05:09:15;60519.59;;;17.77;100.00
7836;BME280;3963;42.658;23.298;2022-08-21T05:11:43;60507.25;;;17.83;100.00
7836;BME280;3963;42.658;23.298;2022-08-21T05:14:10;60541.00;;;17.90;100.00
7836;BME280;3963;42.658;23.298;2022-08-21T05:16:37;60548.22;;;18.01;100.00
7836;BME280;3963;42.658;23.298;2022-08-21T05:19:06;60570.84;;;18.03;100.00
7836;BME280;3963;42.658;23.298;2022-08-21T05:21:37;60456.81;;;17.80;100.00
7836;BME280;3963;42.658;23.298;2022-08-21T05:24:04;60491.69;;;17.88;100.00
7836;BME280;3963;42.658;23.298;2022-08-21T05:26:31;60544.06;;;18.02;100.00
7836;BME280;3963;42.658;23.298;2022-08-21T05:28:58;60534.31;;;18.08;100.00
7836;BME280;3963;42.658;23.298;2022-08-21T05:31:25;60533.50;;;18.14;100.00
7836;BME280;3963;42.658;23.298;2022-08-21T05:33:51;60504.22;;;18.02;100.00
7836;BME280;3963;42.658;23.298;2022-08-21T05:36:18;60550.66;;;18.25;100.00
7836;BME280;3963;42.658;23.298;2022-08-21T05:38:47;60564.00;;;18.48;100.00
7836;BME280;3963;42.658;23.298;2022-08-21T05:41:14;60560.75;;;18.59;100.00
7836;BME280;3963;42.658;23.298;2022-08-21T05:43:41;60557.22;;;18.63;100.00
7836;BME280;3963;42.658;23.298;2022-08-21T05:46:08;60581.72;;;18.59;100.00
7836;BME280;3963;42.658;23.298;2022-08-21T05:48:35;60597.84;;;18.69;100.00
7836;BME280;3963;42.658;23.298;2022-08-21T05:51:05;60562.47;;;18.34;100.00
7836;BME280;3963;42.658;23.298;2022-08-21T05:53:33;60574.78;;;18.55;100.00
7836;BME280;3963;42.658;23.298;2022-08-21T05:56:03;60604.81;;;18.59;100.00
7836;BME280;3963;42.658;23.298;2022-08-21T05:58:31;60586.16;;;18.66;100.00
7836;BME280;3963;42.658;23.298;2022-08-21T06:00:59;60598.00;;;18.74;100.00
7836;BME280;3963;42.658;23.298;2022-08-21T06:03:28;60576.84;;;18.55;100.00
7836;BME280;3963;42.658;23.298;2022-08-21T06:05:55;60609.75;;;18.81;100.00
7836;BME280;3963;42.658;23.298;2022-08-21T06:08:23;60611.81;;;18.80;100.00
7836;BME280;3963;42.658;23.298;2022-08-21T06:10:51;60631.97;;;19.01;100.00
7836;BME280;3963;42.658;23.298;2022-08-21T06:13:20;60650.53;;;19.06;100.00
7836;BME280;3963;42.658;23.298;2022-08-21T06:15:48;60629.00;;;18.91;100.00
7836;BME280;3963;42.658;23.298;2022-08-21T06:18:15;60592.94;;;18.65;100.00
7836;BME280;3963;42.658;23.298;2022-08-21T06:20:43;60616.63;;;18.82;100.00
7836;BME280;3963;42.658;23.298;2022-08-21T06:23:10;60692.63;;;19.09;100.00
7836;BME280;3963;42.658;23.298;2022-08-21T06:25:38;60660.94;;;19.04;100.00
7836;BME280;3963;42.658;23.298;2022-08-21T06:28:06;60669.38;;;19.04;100.00
7836;BME280;3963;42.658;23.298;2022-08-21T06:30:36;60648.38;;;19.04;100.00
7836;BME280;3963;42.658;23.298;2022-08-21T06:33:03;60710.34;;;19.35;100.00
7836;BME280;3963;42.658;23.298;2022-08-21T06:35:32;60711.78;;;19.61;100.00
7836;BME280;3963;42.658;23.298;2022-08-21T06:37:59;60754.25;;;19.73;100.00
7836;BME280;3963;42.658;23.298;2022-08-21T06:40:27;60760.41;;;19.84;100.00
7836;BME280;3963;42.658;23.298;2022-08-21T06:42:54;60763.50;;;19.82;100.00
7836;BME280;3963;42.658;23.298;2022-08-21T06:45:21;60745.00;;;19.79;100.00
7836;BME280;3963;42.658;23.298;2022-08-21T06:47:51;60772.56;;;19.85;100.00
7836;BME280;3963;42.658;23.298;2022-08-21T06:50:18;60794.28;;;20.06;100.00
7836;BME280;3963;42.658;23.298;2022-08-21T06:52:45;60815.75;;;20.18;100.00
7836;BME280;3963;42.658;23.298;2022-08-21T06:55:11;60758.91;;;20.02;100.00
7836;BME280;3963;42.658;23.298;2022-08-21T06:57:38;60791.38;;;20.13;100.00
7836;BME280;3963;42.658;23.298;2022-08-21T07:00:06;60784.75;;;20.19;100.00
7836;BME280;3963;42.658;23.298;2022-08-21T07:02:34;60804.25;;;20.05;100.00
7836;BME280;3963;42.658;23.298;2022-08-21T07:05:04;60770.38;;;19.83;100.00
7836;BME280;3963;42.658;23.298;2022-08-21T07:07:31;60787.94;;;20.05;100.00
7836;BME280;3963;42.658;23.298;2022-08-21T07:09:58;60760.59;;;19.89;100.00
7836;BME280;3963;42.658;23.298;2022-08-21T07:12:25;60770.56;;;19.88;100.00
7836;BME280;3963;42.658;23.298;2022-08-21T07:14:52;60830.91;;;20.30;100.00
7836;BME280;3963;42.658;23.298;2022-08-21T07:17:19;60882.94;;;20.59;100.00
7836;BME280;3963;42.658;23.298;2022-08-21T07:19:46;60859.94;;;20.79;100.00
7836;BME280;3963;42.658;23.298;2022-08-21T07:22:16;60949.78;;;21.04;100.00
7836;BME280;3963;42.658;23.298;2022-08-21T07:24:44;60924.81;;;20.97;100.00
7836;BME280;3963;42.658;23.298;2022-08-21T07:27:11;61006.19;;;21.48;100.00
7836;BME280;3963;42.658;23.298;2022-08-21T07:29:38;61031.53;;;21.65;100.00
7836;BME280;3963;42.658;23.298;2022-08-21T07:32:05;61059.25;;;21.88;100.00
7836;BME280;3963;42.658;23.298;2022-08-21T07:34:32;61021.69;;;21.70;100.00
7836;BME280;3963;42.658;23.298;2022-08-21T07:36:59;61010.44;;;21.65;100.00
7836;BME280;3963;42.658;23.298;2022-08-21T07:39:27;61022.50;;;21.78;100.00
7836;BME280;3963;42.658;23.298;2022-08-21T07:41:54;61056.06;;;21.73;100.00
7836;BME280;3963;42.658;23.298;2022-08-21T07:44:21;61067.25;;;21.76;100.00
7836;BME280;3963;42.658;23.298;2022-08-21T07:46:48;61045.25;;;21.65;100.00
7836;BME280;3963;42.658;23.298;2022-08-21T07:49:15;61022.59;;;21.66;100.00
7836;BME280;3963;42.658;23.298;2022-08-21T07:51:42;61019.91;;;21.49;100.00
7836;BME280;3963;42.658;23.298;2022-08-21T07:54:08;61007.59;;;21.60;100.00
7836;BME280;3963;42.658;23.298;2022-08-21T07:56:37;61031.41;;;21.77;100.00
7836;BME280;3963;42.658;23.298;2022-08-21T07:59:04;61059.03;;;21.97;100.00
7836;BME280;3963;42.658;23.298;2022-08-21T08:01:31;61083.16;;;21.93;100.00
7836;BME280;3963;42.658;23.298;2022-08-21T08:03:58;61030.16;;;21.71;100.00
7836;BME280;3963;42.658;23.298;2022-08-21T08:06:24;61025.78;;;21.67;100.00
7836;BME280;3963;42.658;23.298;2022-08-21T08:08:51;61043.34;;;21.71;100.00
7836;BME280;3963;42.658;23.298;2022-08-21T08:11:18;61152.56;;;22.16;100.00
7836;BME280;3963;42.658;23.298;2022-08-21T08:13:49;61219.72;;;22.78;100.00
7836;BME280;3963;42.658;23.298;2022-08-21T08:16:16;61160.97;;;22.60;100.00
7836;BME280;3963;42.658;23.298;2022-08-21T08:18:43;61148.22;;;22.73;100.00
7836;BME280;3963;42.658;23.298;2022-08-21T08:21:11;61209.31;;;22.83;100.00
7836;BME280;3963;42.658;23.298;2022-08-21T08:23:39;61189.63;;;22.79;100.00
7836;BME280;3963;42.658;23.298;2022-08-21T08:26:06;61214.25;;;22.73;100.00
7836;BME280;3963;42.658;23.298;2022-08-21T08:28:33;61135.75;;;22.49;100.00
7836;BME280;3963;42.658;23.298;2022-08-21T08:31:02;61184.81;;;22.63;100.00
7836;BME280;3963;42.658;23.298;2022-08-21T08:33:29;61273.47;;;23.35;100.00
7836;BME280;3963;42.658;23.298;2022-08-21T08:35:56;61383.13;;;23.99;100.00
7836;BME280;3963;42.658;23.298;2022-08-21T08:38:25;61502.38;;;24.60;100.00
7836;BME280;3963;42.658;23.298;2022-08-21T08:40:55;61592.22;;;25.43;100.00
7836;BME280;3963;42.658;23.298;2022-08-21T08:43:27;61654.19;;;25.68;100.00
7836;BME280;3963;42.658;23.298;2022-08-21T08:45:57;61635.22;;;25.73;100.00
7836;BME280;3963;42.658;23.298;2022-08-21T08:48:39;61748.25;;;26.30;100.00
7836;BME280;3963;42.658;23.298;2022-08-21T08:51:14;61793.91;;;26.43;100.00
7836;BME280;3963;42.658;23.298;2022-08-21T08:53:49;61692.06;;;25.89;100.00
7836;BME280;3963;42.658;23.298;2022-08-21T08:56:22;61676.16;;;25.74;100.00
7836;BME280;3963;42.658;23.298;2022-08-21T08:58:52;61735.34;;;26.11;100.00
7836;BME280;3963;42.658;23.298;2022-08-21T09:01:20;61808.00;;;26.36;100.00
7836;BME280;3963;42.658;23.298;2022-08-21T09:03:49;61873.16;;;26.74;100.00
7836;BME280;3963;42.658;23.298;2022-08-21T09:06:27;61852.44;;;26.89;100.00
7836;BME280;3963;42.658;23.298;2022-08-21T09:09:02;61883.06;;;27.13;99.51
7836;BME280;3963;42.658;23.298;2022-08-21T09:11:43;61897.38;;;27.11;100.00
7836;BME280;3963;42.658;23.298;2022-08-21T09:14:21;61809.72;;;26.70;100.00
7836;BME280;3963;42.658;23.298;2022-08-21T09:16:56;61755.31;;;26.05;100.00
7836;BME280;3963;42.658;23.298;2022-08-21T09:19:38;61669.25;;;25.90;100.00
7836;BME280;3963;42.658;23.298;2022-08-21T09:22:19;61654.09;;;25.51;100.00
7836;BME280;3963;42.658;23.298;2022-08-21T09:24:56;61622.72;;;25.49;100.00
7836;BME280;3963;42.658;23.298;2022-08-21T09:27:28;61751.66;;;26.21;100.00
7836;BME280;3963;42.658;23.298;2022-08-21T09:29:57;61856.22;;;26.76;100.00
7836;BME280;3963;42.658;23.298;2022-08-21T09:32:26;61806.94;;;26.97;97.46
7836;BME280;3963;42.658;23.298;2022-08-21T09:34:59;61901.03;;;27.10;99.23
7836;BME280;3963;42.658;23.298;2022-08-21T09:37:27;61862.06;;;27.06;98.69
7836;BME280;3963;42.658;23.298;2022-08-21T09:39:56;61860.56;;;27.09;96.71
7836;BME280;3963;42.658;23.298;2022-08-21T09:42:25;61861.31;;;27.00;96.43
7836;BME280;3963;42.658;23.298;2022-08-21T09:45:06;61849.78;;;26.75;99.28
7836;BME280;3963;42.658;23.298;2022-08-21T09:47:34;61795.63;;;26.47;98.61
7836;BME280;3963;42.658;23.298;2022-08-21T09:50:13;61751.50;;;26.16;100.00
7836;BME280;3963;42.658;23.298;2022-08-21T09:52:45;61676.56;;;25.86;100.00
7836;BME280;3963;42.658;23.298;2022-08-21T09:55:21;61656.00;;;25.46;100.00
7836;BME280;3963;42.658;23.298;2022-08-21T09:58:06;61509.56;;;24.69;100.00
7836;BME280;3963;42.658;23.298;2022-08-21T10:00:35;61485.19;;;24.54;100.00
7836;BME280;3963;42.658;23.298;2022-08-21T10:03:11;61493.75;;;24.72;100.00
7836;BME280;3963;42.658;23.298;2022-08-21T10:05:49;61509.09;;;24.71;100.00
7836;BME280;3963;42.658;23.298;2022-08-21T10:08:18;61484.81;;;24.59;100.00
7836;BME280;3963;42.658;23.298;2022-08-21T10:10:45;61494.78;;;24.56;100.00
7836;BME280;3963;42.658;23.298;2022-08-21T10:13:21;61472.59;;;24.43;100.00
7836;BME280;3963;42.658;23.298;2022-08-21T10:15:57;61495.94;;;24.89;100.00
7836;BME280;3963;42.658;23.298;2022-08-21T10:18:29;61594.81;;;25.26;100.00
7836;BME280;3963;42.658;23.298;2022-08-21T10:21:11;61699.66;;;25.78;100.00
7836;BME280;3963;42.658;23.298;2022-08-21T10:23:48;61802.50;;;26.61;100.00
7836;BME280;3963;42.658;23.298;2022-08-21T10:26:29;61895.53;;;27.19;100.00
7836;BME280;3963;42.658;23.298;2022-08-21T10:29:03;61928.94;;;27.45;98.06
7836;BME280;3963;42.658;23.298;2022-08-21T10:31:42;61978.75;;;27.69;95.77
7836;BME280;3963;42.658;23.298;2022-08-21T10:34:26;62033.97;;;28.07;93.62
7836;BME280;3963;42.658;23.298;2022-08-21T10:37:06;62063.53;;;28.00;91.77
7836;BME280;3963;42.658;23.298;2022-08-21T10:39:46;62102.69;;;28.21;91.41
7836;BME280;3963;42.658;23.298;2022-08-21T10:42:27;62210.03;;;28.97;86.24
7836;BME280;3963;42.658;23.298;2022-08-21T10:45:02;62114.47;;;28.66;84.83
7836;BME280;3963;42.658;23.298;2022-08-21T10:47:35;62122.38;;;28.34;85.63
7836;BME280;3963;42.658;23.298;2022-08-21T10:50:12;62111.34;;;28.24;84.72
7836;BME280;3963;42.658;23.298;2022-08-21T10:53:03;62204.59;;;28.80;83.49
7836;BME280;3963;42.658;23.298;2022-08-21T10:55:36;62151.88;;;28.54;84.01
7836;BME280;3963;42.658;23.298;2022-08-21T10:58:08;62183.09;;;28.75;81.58
7836;BME280;3963;42.658;23.298;2022-08-21T11:00:45;62229.19;;;28.95;77.69
7836;BME280;3963;42.658;23.298;2022-08-21T11:03:16;62250.63;;;29.42;69.05
7836;BME280;3963;42.658;23.298;2022-08-21T11:05:48;62316.56;;;29.48;68.58
7836;BME280;3963;42.658;23.298;2022-08-21T11:08:20;62195.94;;;28.92;68.96
7836;BME280;3963;42.658;23.298;2022-08-21T11:10:52;62158.59;;;28.92;69.60
7836;BME280;3963;42.658;23.298;2022-08-21T11:13:26;62243.47;;;29.35;66.29
7836;BME280;3963;42.658;23.298;2022-08-21T11:16:00;62339.06;;;29.64;66.18
7836;BME280;3963;42.658;23.298;2022-08-21T11:18:32;62363.22;;;29.81;65.63
7836;BME280;3963;42.658;23.298;2022-08-21T11:21:09;62321.19;;;29.87;64.77
7836;BME280;3963;42.658;23.298;2022-08-21T11:23:46;62320.91;;;29.50;65.10
7836;BME280;3963;42.658;23.298;2022-08-21T11:26:19;62225.41;;;29.09;65.37
7836;BME280;3963;42.658;23.298;2022-08-21T11:28:52;62071.81;;;28.37;66.70
7836;BME280;3963;42.658;23.298;2022-08-21T11:31:38;61932.97;;;27.54;70.12
7836;BME280;3963;42.658;23.298;2022-08-21T11:34:24;61927.56;;;27.22;72.36
7836;BME280;3963;42.658;23.298;2022-08-21T11:36:58;61913.59;;;27.19;71.95
7836;BME280;3963;42.658;23.298;2022-08-21T11:39:34;61915.91;;;27.23;70.71
7836;BME280;3963;42.658;23.298;2022-08-21T11:42:11;61851.44;;;27.06;71.44
7836;BME280;3963;42.658;23.298;2022-08-21T11:44:50;61827.16;;;26.66;73.98
7836;BME280;3963;42.658;23.298;2022-08-21T11:47:23;61812.00;;;26.74;75.53
7836;BME280;3963;42.658;23.298;2022-08-21T11:50:12;61786.44;;;26.58;76.55
7836;BME280;3963;42.658;23.298;2022-08-21T11:52:43;61751.56;;;26.33;73.46
7836;BME280;3963;42.658;23.298;2022-08-21T11:55:16;61727.91;;;26.12;76.69
7836;BME280;3963;42.658;23.298;2022-08-21T11:57:50;61695.25;;;25.89;77.80
7836;BME280;3963;42.658;23.298;2022-08-21T12:00:22;61666.72;;;25.77;78.25
7836;BME280;3963;42.658;23.298;2022-08-21T12:02:53;61655.56;;;25.62;80.78
7836;BME280;3963;42.658;23.298;2022-08-21T12:05:25;61614.66;;;25.47;80.42
7836;BME280;3963;42.658;23.298;2022-08-21T12:08:03;61610.56;;;25.50;80.81
7836;BME280;3963;42.658;23.298;2022-08-21T12:10:37;61629.66;;;25.51;82.25
7836;BME280;3963;42.658;23.298;2022-08-21T12:13:23;61625.81;;;25.47;81.41
7836;BME280;3963;42.658;23.298;2022-08-21T12:15:51;61621.69;;;25.36;82.00
7836;BME280;3963;42.658;23.298;2022-08-21T12:18:22;61598.44;;;25.39;81.03
7836;BME280;3963;42.658;23.298;2022-08-21T12:21:04;61574.44;;;25.19;83.06
7836;BME280;3963;42.658;23.298;2022-08-21T12:23:46;61555.09;;;24.97;84.71
7836;BME280;3963;42.658;23.298;2022-08-21T12:26:27;61566.50;;;25.05;85.71
7836;BME280;3963;42.658;23.298;2022-08-21T12:29:21;61537.94;;;25.22;85.52
7836;BME280;3963;42.658;23.298;2022-08-21T12:31:58;61553.50;;;24.98;87.08
7836;BME280;3963;42.658;23.298;2022-08-21T12:34:32;61525.72;;;24.92;86.51
7836;BME280;3963;42.658;23.298;2022-08-21T12:37:04;61518.41;;;24.80;84.07
7836;BME280;3963;42.658;23.298;2022-08-21T12:39:35;61511.47;;;24.78;83.50
7836;BME280;3963;42.658;23.298;2022-08-21T12:42:11;61507.47;;;24.70;85.59
7836;BME280;3963;42.658;23.298;2022-08-21T12:44:43;61525.19;;;24.62;85.35
7836;BME280;3963;42.658;23.298;2022-08-21T12:47:17;61490.66;;;24.59;86.77
7836;BME280;3963;42.658;23.298;2022-08-21T12:49:53;61439.88;;;24.47;86.47
7836;BME280;3963;42.658;23.298;2022-08-21T12:52:25;61481.00;;;24.41;87.10
7836;BME280;3963;42.658;23.298;2022-08-21T12:54:54;61435.88;;;24.38;88.48
7836;BME280;3963;42.658;23.298;2022-08-21T12:57:24;61450.22;;;24.39;88.16
7836;BME280;3963;42.658;23.298;2022-08-21T12:59:54;61487.00;;;24.46;89.31
7836;BME280;3963;42.658;23.298;2022-08-21T13:02:24;61471.31;;;24.51;89.44
7836;BME280;3963;42.658;23.298;2022-08-21T13:04:52;61458.63;;;24.37;88.75
7836;BME280;3963;42.658;23.298;2022-08-21T13:07:25;61472.94;;;24.53;89.79
7836;BME280;3963;42.658;23.298;2022-08-21T13:09:55;61490.56;;;24.57;90.98
7836;BME280;3963;42.658;23.298;2022-08-21T13:12:25;61499.63;;;24.58;90.45
7836;BME280;3963;42.658;23.298;2022-08-21T13:14:56;61487.38;;;24.56;90.38
7836;BME280;3963;42.658;23.298;2022-08-21T13:17:25;61452.41;;;24.41;91.92